Time;durP1;ratioP1;P1;durP2;ratioP2;P2;SDS_P1;SDS_P2;PMS_P1;PMS_P2;Temp;Humidity;BMP_temperature;BMP_pressure;BME280_temperature;BME280_humidity;BME280_pressure;Samples;Min_cycle;Max_cycle;Signal;HPM_P1;HPM_P2
2022/01/17 00:00:10;;;;;;;14.32;12.93;;;3.90;99.90;;;;;;4932273;29;20658;-63
2022/01/17 00:02:38;;;;;;;13.48;12.25;;;3.80;99.90;;;;;;4942589;29;20234;-63
2022/01/17 00:05:09;;;;;;;15.77;14.18;;;3.80;99.90;;;;;;4945117;29;20257;-63
2022/01/17 00:07:38;;;;;;;14.30;12.95;;;3.80;99.90;;;;;;4953368;29;20211;-63
2022/01/17 00:10:07;;;;;;;15.07;13.70;;;3.80;99.90;;;;;;4953688;29;20803;-63
2022/01/17 00:12:38;;;;;;;14.80;13.50;;;3.90;99.90;;;;;;4947899;28;20208;-63
2022/01/17 00:15:14;;;;;;;14.98;13.55;;;3.90;99.90;;;;;;4936630;29;20223;-63
2022/01/17 00:17:45;;;;;;;15.00;13.60;;;3.90;99.90;;;;;;4929159;29;20290;-63
2022/01/17 00:20:17;;;;;;;16.05;14.52;;;3.90;99.90;;;;;;4934866;29;20692;-63
2022/01/17 00:22:47;;;;;;;17.38;15.73;;;3.80;99.90;;;;;;4934442;29;20259;-62
2022/01/17 00:25:15;;;;;;;14.65;13.20;;;3.90;99.90;;;;;;4934814;29;20220;-63
2022/01/17 00:27:43;;;;;;;14.68;13.32;;;3.90;99.90;;;;;;4934908;29;20243;-63
2022/01/17 00:30:11;;;;;;;16.42;14.73;;;3.80;99.90;;;;;;4934517;29;20587;-63
2022/01/17 00:32:39;;;;;;;16.55;14.93;;;3.90;99.90;;;;;;4934346;29;20939;-63
2022/01/17 00:35:08;;;;;;;14.25;12.90;;;3.90;99.90;;;;;;4934691;29;20231;-63
2022/01/17 00:37:36;;;;;;;15.85;14.35;;;3.90;99.90;;;;;;4934823;29;20458;-63
2022/01/17 00:40:06;;;;;;;15.23;13.75;;;4.00;99.90;;;;;;4934655;29;20319;-63
2022/01/17 00:42:34;;;;;;;15.00;13.52;;;4.00;99.90;;;;;;4934266;29;20235;-64
2022/01/17 00:45:06;;;;;;;15.80;14.30;;;3.90;99.90;;;;;;4945780;29;20266;-64
2022/01/17 00:47:35;;;;;;;14.93;13.57;;;4.00;99.90;;;;;;4953045;29;20227;-64
2022/01/17 00:50:04;;;;;;;16.15;14.55;;;4.00;99.90;;;;;;4952896;29;20266;-63
2022/01/17 00:52:32;;;;;;;15.30;13.85;;;4.00;99.90;;;;;;4952616;29;20258;-64
2022/01/17 00:55:00;;;;;;;13.98;12.68;;;4.00;99.90;;;;;;4952862;29;20258;-63
2022/01/17 00:57:29;;;;;;;15.88;14.35;;;3.90;99.90;;;;;;4952770;29;20211;-63
2022/01/17 00:59:57;;;;;;;17.13;15.52;;;3.90;99.90;;;;;;4950953;29;20291;-64
2022/01/17 01:02:25;;;;;;;16.92;15.10;;;3.80;99.90;;;;;;4934267;29;20610;-64
2022/01/17 01:04:53;;;;;;;15.77;14.35;;;3.80;99.90;;;;;;4934065;29;20230;-64
2022/01/17 01:07:20;;;;;;;18.35;16.48;;;3.70;99.90;;;;;;4934428;29;20235;-64
2022/01/17 01:09:58;;;;;;;17.85;16.15;;;3.70;99.90;;;;;;4939427;29;20243;-63
2022/01/17 01:12:25;;;;;;;18.20;16.35;;;3.70;99.90;;;;;;4934270;29;20773;-63
2022/01/17 01:14:55;;;;;;;18.98;17.08;;;3.70;99.90;;;;;;4934416;29;20244;-63
2022/01/17 01:17:33;;;;;;;17.42;15.70;;;3.60;99.90;;;;;;4932733;29;20295;-63
2022/01/17 01:20:14;;;;;;;19.08;17.00;;;3.50;99.90;;;;;;4939471;29;20251;-63
2022/01/17 01:28:21;;;;;;;17.17;15.52;;;3.60;99.90;;;;;;4940063;28;20274;-64
2022/01/17 01:30:53;;;;;;;16.75;14.95;;;3.60;99.90;;;;;;4952358;29;20334;-63
2022/01/17 01:33:26;;;;;;;16.05;14.60;;;3.70;99.90;;;;;;4952214;29;20210;-64
2022/01/17 01:36:00;;;;;;;16.55;14.95;;;3.80;99.90;;;;;;4952798;29;20207;-63
2022/01/17 01:38:28;;;;;;;16.13;14.60;;;3.90;99.90;;;;;;4952344;29;20203;-64
2022/01/17 01:40:56;;;;;;;17.73;15.70;;;3.90;99.90;;;;;;4952589;29;20311;-64
2022/01/17 01:43:25;;;;;;;14.82;13.27;;;4.10;99.90;;;;;;4952172;29;20242;-63
2022/01/17 01:45:58;;;;;;;16.55;14.82;;;4.10;99.90;;;;;;4946440;29;20251;-64
2022/01/17 01:48:27;;;;;;;15.85;14.25;;;4.10;99.90;;;;;;4945669;29;20291;-64
2022/01/17 01:50:55;;;;;;;15.27;13.68;;;4.00;99.90;;;;;;4952406;28;20298;-64
2022/01/17 01:53:23;;;;;;;15.73;14.23;;;4.00;99.90;;;;;;4955747;29;20642;-64
2022/01/17 01:55:52;;;;;;;16.10;14.60;;;4.00;99.90;;;;;;4955991;29;20716;-63
2022/01/17 01:58:23;;;;;;;14.98;13.48;;;4.00;99.90;;;;;;4955581;28;20311;-64
2022/01/17 02:00:51;;;;;;;14.60;13.10;;;4.00;99.90;;;;;;4947256;29;20756;-64
2022/01/17 02:03:21;;;;;;;15.40;13.88;;;4.00;99.90;;;;;;4937184;29;20263;-64
2022/01/17 02:05:49;;;;;;;16.13;14.52;;;4.00;99.90;;;;;;4937378;29;20227;-64
2022/01/17 02:08:18;;;;;;;16.15;14.55;;;3.90;99.90;;;;;;4936929;29;20294;-64
2022/01/17 02:10:45;;;;;;;15.68;14.05;;;3.90;99.90;;;;;;4937170;29;20634;-64
2022/01/17 02:13:13;;;;;;;16.50;14.82;;;3.80;99.90;;;;;;4955513;29;20238;-64
2022/01/17 02:15:43;;;;;;;14.60;13.20;;;3.80;99.90;;;;;;4941237;29;20565;-64
2022/01/17 02:18:18;;;;;;;15.52;13.98;;;3.90;99.90;;;;;;4932630;29;20192;-64
2022/01/17 02:21:09;;;;;;;15.27;13.90;;;3.90;99.90;;;;;;4934791;29;20255;-63
2022/01/17 02:23:35;;;;;;;15.25;13.85;;;3.90;99.90;;;;;;4936783;29;20239;-63
2022/01/17 02:26:03;;;;;;;15.27;13.77;;;3.80;99.90;;;;;;4937091;29;20332;-63
2022/01/17 02:28:33;;;;;;;16.17;14.63;;;3.70;99.90;;;;;;4937099;29;20239;-63
2022/01/17 02:31:01;;;;;;;17.35;14.15;;;3.60;99.90;;;;;;4936701;29;20278;-64
2022/01/17 02:33:29;;;;;;;16.27;14.63;;;3.60;99.90;;;;;;4936628;29;20219;-63
2022/01/17 02:35:59;;;;;;;15.95;14.43;;;3.60;99.90;;;;;;4936769;29;20275;-63
2022/01/17 02:38:27;;;;;;;15.07;13.73;;;3.50;99.90;;;;;;4936599;29;20704;-64
2022/01/17 02:40:55;;;;;;;15.60;14.10;;;3.50;99.90;;;;;;4936670;29;20327;-63
2022/01/17 02:43:24;;;;;;;16.65;14.95;;;3.40;99.90;;;;;;4936453;29;20303;-64
2022/01/17 02:48:39;;;;;;;16.58;14.93;;;3.50;99.90;;;;;;4945859;29;20217;-62
2022/01/17 02:51:11;;;;;;;17.50;15.55;;;3.40;99.90;;;;;;4954913;29;20712;-63
2022/01/17 02:53:40;;;;;;;16.98;15.20;;;3.40;99.90;;;;;;4954719;29;20211;-64
2022/01/17 02:56:09;;;;;;;16.90;15.13;;;3.40;99.90;;;;;;4954955;29;20298;-63
2022/01/17 02:58:40;;;;;;;15.73;14.20;;;3.30;99.90;;;;;;4954563;29;20635;-63
2022/01/17 03:01:10;;;;;;;16.65;14.95;;;3.30;99.90;;;;;;4943904;28;20291;-63
2022/01/17 03:03:42;;;;;;;17.27;15.77;;;3.30;99.90;;;;;;4935001;29;20582;-63
2022/01/17 03:06:12;;;;;;;16.92;15.23;;;3.30;99.90;;;;;;4936529;29;20263;-63
2022/01/17 03:08:41;;;;;;;17.42;15.82;;;3.30;99.90;;;;;;4936240;29;20667;-63
2022/01/17 03:11:12;;;;;;;19.63;17.73;;;3.30;99.90;;;;;;4936145;29;20314;-63
2022/01/17 03:13:40;;;;;;;17.85;15.90;;;3.30;99.90;;;;;;4935843;29;20227;-64
2022/01/17 03:16:12;;;;;;;16.65;15.10;;;3.30;99.90;;;;;;4936156;29;20210;-63
2022/01/17 03:18:42;;;;;;;18.58;16.58;;;3.30;99.90;;;;;;4945159;29;20223;-64
2022/01/17 03:21:14;;;;;;;17.90;15.98;;;3.30;99.90;;;;;;4946102;29;20253;-64
2022/01/17 03:23:43;;;;;;;18.13;16.45;;;3.20;99.90;;;;;;4938763;28;20212;-63
2022/01/17 03:26:11;;;;;;;18.35;16.58;;;3.10;99.90;;;;;;4935837;29;20294;-63
2022/01/17 03:28:39;;;;;;;19.30;17.35;;;3.00;99.90;;;;;;4935840;29;20311;-64
2022/01/17 03:31:08;;;;;;;18.67;16.90;;;2.90;99.90;;;;;;4953872;29;20278;-63
2022/01/17 03:33:36;;;;;;;20.20;18.20;;;2.90;99.90;;;;;;4929269;29;20207;-63
2022/01/17 03:36:05;;;;;;;18.63;16.92;;;2.90;99.90;;;;;;4929642;29;20239;-63
2022/01/17 03:38:35;;;;;;;18.83;17.13;;;2.90;99.90;;;;;;4930043;29;20677;-63
2022/01/17 03:41:05;;;;;;;18.63;16.77;;;2.90;99.90;;;;;;4929906;29;20228;-63
2022/01/17 03:43:34;;;;;;;18.75;16.95;;;2.90;99.90;;;;;;4935493;29;20204;-64
2022/01/17 03:46:02;;;;;;;19.05;17.17;;;2.90;99.90;;;;;;4937548;29;20614;-64
2022/01/17 03:48:31;;;;;;;17.58;15.98;;;3.00;99.90;;;;;;4942508;29;20192;-63
2022/01/17 03:51:01;;;;;;;18.05;16.35;;;3.10;99.90;;;;;;4935793;29;20736;-63
2022/01/17 03:53:29;;;;;;;18.50;16.80;;;3.10;99.90;;;;;;4935239;29;20215;-63
2022/01/17 03:55:59;;;;;;;18.08;16.38;;;3.10;99.90;;;;;;4935901;29;20227;-63
2022/01/17 03:58:27;;;;;;;17.55;15.88;;;3.20;99.90;;;;;;4935302;29;20215;-63
2022/01/17 04:00:57;;;;;;;17.48;15.80;;;3.10;99.90;;;;;;4941912;29;20599;-63
2022/01/17 04:03:26;;;;;;;17.23;15.70;;;3.10;99.90;;;;;;4953424;29;20206;-63
2022/01/17 04:05:55;;;;;;;17.77;16.27;;;3.00;99.90;;;;;;4953524;29;20643;-63
2022/01/17 04:08:23;;;;;;;18.17;16.48;;;3.00;99.90;;;;;;4953542;29;20266;-63
2022/01/17 04:10:51;;;;;;;18.42;16.73;;;3.00;99.90;;;;;;4953197;29;20713;-63
2022/01/17 04:13:22;;;;;;;17.98;16.27;;;3.00;99.90;;;;;;4953361;28;20242;-62
2022/01/17 04:15:51;;;;;;;18.10;16.38;;;2.90;99.90;;;;;;4947570;28;20664;-62
2022/01/17 04:18:23;;;;;;;17.45;15.85;;;3.00;99.90;;;;;;4944973;29;20569;-63
2022/01/17 04:20:52;;;;;;;16.50;14.65;;;3.00;99.90;;;;;;4953024;29;20276;-63
2022/01/17 04:23:20;;;;;;;16.63;15.13;;;3.00;99.90;;;;;;4953113;29;20329;-64
2022/01/17 04:25:49;;;;;;;16.58;14.93;;;3.10;99.90;;;;;;4951919;29;20254;-64
2022/01/17 04:28:17;;;;;;;15.45;13.93;;;3.20;99.90;;;;;;4940112;29;20219;-63
2022/01/17 04:30:50;;;;;;;16.40;14.80;;;3.10;99.90;;;;;;4965883;23;20270;31
2022/01/17 04:33:18;;;;;;;16.33;14.73;;;3.10;99.90;;;;;;4930304;29;20216;-70
2022/01/17 04:35:46;;;;;;;14.90;13.60;;;3.20;99.90;;;;;;4934617;29;20242;-71
2022/01/17 04:38:17;;;;;;;15.30;13.98;;;3.20;99.90;;;;;;4934799;29;20204;-70
2022/01/17 04:40:47;;;;;;;14.82;13.43;;;3.20;99.90;;;;;;4934580;29;20216;-69
2022/01/17 04:43:20;;;;;;;15.73;14.30;;;3.20;99.90;;;;;;4934562;29;20235;-71
2022/01/17 04:45:51;;;;;;;15.93;14.52;;;3.20;99.90;;;;;;4934685;29;20235;-71
2022/01/17 04:48:19;;;;;;;15.73;14.32;;;3.20;99.90;;;;;;4936492;29;20273;-71
2022/01/17 04:50:47;;;;;;;13.13;11.88;;;3.30;99.90;;;;;;4936481;29;20291;-69
2022/01/17 04:53:18;;;;;;;12.75;11.60;;;3.40;99.90;;;;;;4934484;29;20208;-71
2022/01/17 04:55:46;;;;;;;11.20;10.20;;;3.50;99.90;;;;;;4934629;29;20278;-71
2022/01/17 04:58:14;;;;;;;11.80;10.75;;;3.60;99.90;;;;;;4934519;29;20677;-70
2022/01/17 05:00:46;;;;;;;12.55;11.35;;;3.70;99.90;;;;;;4941723;29;20206;-71
2022/01/17 05:03:17;;;;;;;11.48;10.48;;;3.70;99.90;;;;;;4952818;29;20199;-71
2022/01/17 05:05:46;;;;;;;11.07;10.10;;;3.70;99.90;;;;;;4952980;29;20250;-71
2022/01/17 05:08:14;;;;;;;11.90;10.73;;;3.70;99.90;;;;;;4952725;29;20269;-71
2022/01/17 05:10:49;;;;;;;10.65;9.75;;;3.80;99.90;;;;;;4952516;28;20208;-71
2022/01/17 05:13:21;;;;;;;10.80;9.75;;;3.80;99.90;;;;;;4952812;29;20245;-72
2022/01/17 05:15:54;;;;;;;10.60;9.70;;;3.90;99.90;;;;;;4947373;29;20216;-72
2022/01/17 05:19:48;;;;;;;10.68;9.68;;;3.90;99.90;;;;;;4948465;29;20213;-72
2022/01/17 05:21:15;;;;;;;9.65;8.90;;;4.00;99.90;;;;;;4943578;29;20247;-71
2022/01/17 05:23:43;;;;;;;9.85;8.95;;;4.10;99.90;;;;;;4934268;29;20239;-70
2022/01/17 05:26:11;;;;;;;11.05;9.95;;;4.10;99.90;;;;;;4934788;29;20208;-71
2022/01/17 05:28:39;;;;;;;9.85;8.95;;;4.10;99.90;;;;;;4937927;29;20272;-71
2022/01/17 05:31:07;;;;;;;9.35;8.55;;;4.20;99.90;;;;;;4937719;29;20232;-70
2022/01/17 05:33:36;;;;;;;9.85;8.65;;;4.10;99.90;;;;;;4949511;29;20290;-71
2022/01/17 05:36:04;;;;;;;8.07;7.38;;;4.20;99.90;;;;;;4941862;29;20235;-70
2022/01/17 05:38:33;;;;;;;9.98;9.05;;;4.30;99.90;;;;;;4938019;29;20673;-71
2022/01/17 05:41:01;;;;;;;9.98;8.98;;;4.30;99.90;;;;;;4937642;29;20208;-71
2022/01/17 05:43:28;;;;;;;9.80;8.80;;;4.40;99.90;;;;;;4937588;29;20737;-71
2022/01/17 05:45:57;;;;;;;10.10;9.13;;;4.30;99.90;;;;;;4937572;29;20207;-71
2022/01/17 05:48:25;;;;;;;10.02;8.25;;;4.30;99.90;;;;;;4944156;29;20232;-72
2022/01/17 05:50:54;;;;;;;9.35;8.48;;;4.30;99.90;;;;;;4955906;29;20247;-72
2022/01/17 05:53:22;;;;;;;9.57;8.68;;;4.30;99.90;;;;;;4955781;28;20294;-71
2022/01/17 05:55:50;;;;;;;12.52;9.45;;;4.20;99.90;;;;;;4954604;29;20215;-72
2022/01/17 05:58:17;;;;;;;10.27;9.35;;;4.10;99.90;;;;;;4949760;29;20220;-71
2022/01/17 06:00:45;;;;;;;9.52;8.52;;;4.90;99.90;;;;;;4936709;29;20231;-69
2022/01/17 06:03:13;;;;;;;8.88;7.97;;;4.20;99.90;;;;;;4937148;29;20282;-71
2022/01/17 06:05:41;;;;;;;9.95;8.95;;;4.20;99.90;;;;;;4931865;29;20204;-71
2022/01/17 06:08:11;;;;;;;8.30;7.50;;;4.20;99.90;;;;;;4937382;29;20697;-71
2022/01/17 06:10:39;;;;;;;9.10;8.23;;;4.20;99.90;;;;;;4937235;29;20228;-70
2022/01/17 06:13:06;;;;;;;7.53;6.82;;;4.10;99.90;;;;;;4936791;29;20768;-71
2022/01/17 06:15:34;;;;;;;8.57;7.78;;;4.20;99.90;;;;;;4933933;29;20208;-73
2022/01/17 06:18:02;;;;;;;8.85;7.95;;;4.20;99.90;;;;;;4930439;29;20235;-74
2022/01/17 06:20:30;;;;;;;7.65;7.05;;;4.20;99.90;;;;;;4932149;29;20676;-74
2022/01/17 06:22:58;;;;;;;9.32;8.43;;;4.20;99.90;;;;;;4931679;29;20327;-73
2022/01/17 06:25:27;;;;;;;9.10;8.30;;;4.20;99.90;;;;;;4935226;29;20737;-73
2022/01/17 06:27:55;;;;;;;9.50;8.60;;;4.10;99.90;;;;;;4946534;28;20719;-72
2022/01/17 06:30:23;;;;;;;8.10;7.50;;;4.20;99.90;;;;;;4947801;28;20703;-72
2022/01/17 06:32:51;;;;;;;9.32;8.43;;;4.10;99.90;;;;;;4946128;29;20247;-75
2022/01/17 06:35:19;;;;;;;8.50;7.80;;;4.10;99.90;;;;;;4945140;29;20242;-75
2022/01/17 06:37:48;;;;;;;9.02;8.23;;;4.10;99.90;;;;;;4947131;28;20233;-72
2022/01/17 06:40:16;;;;;;;8.60;7.80;;;4.20;99.90;;;;;;4936835;29;20238;-73
2022/01/17 06:42:46;;;;;;;8.82;8.02;;;4.10;99.90;;;;;;4943585;29;20314;-73
2022/01/17 06:45:15;;;;;;;8.45;7.70;;;4.20;99.90;;;;;;4933999;29;20262;-73
2022/01/17 06:47:43;;;;;;;9.43;7.88;;;4.10;99.90;;;;;;4930992;29;20210;-72
2022/01/17 06:50:12;;;;;;;9.48;8.68;;;4.10;99.90;;;;;;4941921;29;20203;-73
2022/01/17 06:52:41;;;;;;;9.70;8.90;;;4.10;99.90;;;;;;4944238;29;20259;-74
2022/01/17 06:55:10;;;;;;;8.43;7.72;;;4.10;99.90;;;;;;4936242;29;20508;-74
2022/01/17 06:57:38;;;;;;;8.48;7.78;;;4.10;99.90;;;;;;4945814;29;20286;-75
2022/01/17 07:00:11;;;;;;;8.38;7.68;;;4.10;99.90;;;;;;4934176;29;20274;-74
2022/01/17 07:02:39;;;;;;;8.68;7.88;;;4.10;99.90;;;;;;4938983;29;20260;-72
2022/01/17 07:05:08;;;;;;;8.05;7.25;;;4.10;99.90;;;;;;4925563;29;20263;-75
2022/01/17 07:07:36;;;;;;;8.25;7.45;;;4.20;99.90;;;;;;4929104;29;20236;-74
2022/01/17 07:10:05;;;;;;;9.13;7.75;;;4.20;99.90;;;;;;4935708;29;20274;-75
2022/01/17 07:12:35;;;;;;;7.90;7.10;;;4.30;99.90;;;;;;4930078;29;20263;-75
2022/01/17 07:15:03;;;;;;;8.82;7.93;;;4.30;99.90;;;;;;4935953;29;20638;-74
2022/01/17 07:17:33;;;;;;;8.90;8.05;;;4.20;99.90;;;;;;4932828;29;20196;-70
2022/01/17 07:20:01;;;;;;;7.88;7.18;;;4.20;99.90;;;;;;4937217;29;20612;-73
2022/01/17 07:22:30;;;;;;;7.95;7.25;;;4.20;99.90;;;;;;4938661;29;20744;-73
2022/01/17 07:25:00;;;;;;;9.25;8.43;;;4.20;99.90;;;;;;4936108;29;20632;-76
2022/01/17 07:27:33;;;;;;;9.00;8.10;;;4.20;99.90;;;;;;4935627;29;20211;-71
2022/01/17 07:30:01;;;;;;;9.73;8.80;;;4.30;99.90;;;;;;4935488;29;20318;-74
2022/01/17 07:32:29;;;;;;;10.32;9.20;;;4.30;99.90;;;;;;4952647;29;20235;-74
2022/01/17 07:34:58;;;;;;;10.57;8.75;;;4.30;99.90;;;;;;4934960;29;20291;-74
2022/01/17 07:37:27;;;;;;;9.25;8.35;;;4.30;99.90;;;;;;4929613;29;20207;-74
2022/01/17 07:39:54;;;;;;;8.90;7.72;;;4.40;99.90;;;;;;4929444;29;20679;-73
2022/01/17 07:42:22;;;;;;;8.55;7.75;;;4.40;99.90;;;;;;4929082;29;20327;-75
2022/01/17 07:44:54;;;;;;;7.93;7.22;;;4.40;99.90;;;;;;4929471;29;20303;-74
2022/01/17 07:47:37;;;;;;;8.90;7.97;;;4.40;99.90;;;;;;4932420;29;20650;-75
2022/01/17 07:50:11;;;;;;;9.55;8.75;;;4.50;99.90;;;;;;4938683;28;20317;-74
2022/01/17 07:52:39;;;;;;;9.38;8.13;;;4.50;99.90;;;;;;4935234;29;20248;-74
2022/01/17 07:55:07;;;;;;;9.65;8.73;;;4.40;99.90;;;;;;4935275;29;20223;-75
2022/01/17 07:57:36;;;;;;;8.43;7.63;;;4.50;99.90;;;;;;4935381;29;20236;-74
2022/01/17 08:00:07;;;;;;;7.90;7.20;;;4.50;99.90;;;;;;4935164;29;20234;-74
2022/01/17 08:02:35;;;;;;;9.48;8.50;;;4.50;99.90;;;;;;4935080;29;20300;-74
2022/01/17 08:05:04;;;;;;;9.93;8.75;;;4.50;99.90;;;;;;4935136;29;20219;-75
2022/01/17 08:07:33;;;;;;;10.98;8.50;;;4.60;99.90;;;;;;4935092;28;20650;-74
2022/01/17 08:10:01;;;;;;;8.98;8.15;;;4.60;99.90;;;;;;4934968;29;20266;-73
2022/01/17 08:12:29;;;;;;;17.45;15.57;;;4.70;99.90;;;;;;4934837;29;20716;-74
2022/01/17 08:15:01;;;;;;;11.43;8.93;;;4.70;99.90;;;;;;4935048;29;20236;-73
2022/01/17 08:17:29;;;;;;;9.90;8.90;;;4.70;99.90;;;;;;4923135;29;20203;-74
2022/01/17 08:19:57;;;;;;;13.38;10.90;;;4.80;99.90;;;;;;4943073;29;20243;-74
2022/01/17 08:22:25;;;;;;;11.23;9.93;;;4.80;99.90;;;;;;4934579;29;20250;-74
2022/01/17 08:24:54;;;;;;;10.13;9.13;;;4.80;99.90;;;;;;4934945;29;20210;-74
2022/01/17 08:27:22;;;;;;;9.50;8.60;;;4.90;99.90;;;;;;4935090;29;20645;-74
2022/01/17 08:29:51;;;;;;;9.05;8.20;;;4.90;99.90;;;;;;4934756;29;20224;-74
2022/01/17 08:32:39;;;;;;;8.90;8.05;;;4.90;99.90;;;;;;4934324;29;20291;-74
2022/01/17 08:35:08;;;;;;;10.52;9.52;;;4.90;99.90;;;;;;4934837;29;20203;-74
2022/01/17 08:37:36;;;;;;;9.13;8.13;;;4.90;99.90;;;;;;4934601;29;20196;-74
2022/01/17 08:40:07;;;;;;;9.25;8.15;;;5.00;99.90;;;;;;4934924;29;20239;-74
2022/01/17 08:42:37;;;;;;;8.82;7.95;;;5.00;99.90;;;;;;4934409;29;20290;-74
2022/01/17 08:45:09;;;;;;;10.52;8.85;;;5.00;99.90;;;;;;4934495;29;20240;-74
2022/01/17 08:47:53;;;;;;;13.23;8.93;;;5.10;99.90;;;;;;4940196;29;20204;-72
2022/01/17 08:50:23;;;;;;;10.02;8.88;;;5.10;99.90;;;;;;4952743;28;20270;-74
2022/01/17 08:52:51;;;;;;;10.27;9.32;;;5.00;99.90;;;;;;4952568;29;20325;-74
2022/01/17 08:55:22;;;;;;;9.85;8.45;;;5.00;99.90;;;;;;4951677;29;20207;-74
2022/01/17 08:57:51;;;;;;;10.35;9.35;;;5.10;99.90;;;;;;4928653;29;21364;-74
2022/01/17 09:00:20;;;;;;;10.23;9.27;;;5.10;99.90;;;;;;4934203;29;20219;-74
2022/01/17 09:03:08;;;;;;;9.07;8.18;;;5.10;99.90;;;;;;4933999;29;20315;-74
2022/01/17 09:05:42;;;;;;;9.75;8.75;;;5.10;99.90;;;;;;4934449;29;20208;-74
2022/01/17 09:08:09;;;;;;;10.15;9.15;;;5.20;99.90;;;;;;4934649;29;20223;-74
2022/01/17 09:10:39;;;;;;;13.68;9.15;;;5.20;99.90;;;;;;4934111;29;20764;-74
2022/01/17 09:13:08;;;;;;;10.40;9.30;;;5.20;99.90;;;;;;4934065;29;20315;-74
2022/01/17 09:15:36;;;;;;;10.20;9.18;;;5.20;99.90;;;;;;4934170;29;20252;-74
2022/01/17 09:18:05;;;;;;;11.35;8.55;;;5.20;99.90;;;;;;4932550;29;20204;-74
2022/01/17 09:20:34;;;;;;;11.55;9.40;;;5.20;99.90;;;;;;4936240;29;20287;-75
2022/01/17 09:23:03;;;;;;;9.70;8.80;;;5.20;99.90;;;;;;4933968;29;20232;-74
2022/01/17 09:25:32;;;;;;;9.50;8.60;;;5.20;99.90;;;;;;4934472;29;20657;-74
2022/01/17 09:28:01;;;;;;;9.95;8.90;;;5.10;99.90;;;;;;4934146;29;20231;-72
2022/01/17 09:30:29;;;;;;;9.70;8.70;;;5.20;99.90;;;;;;4916945;29;20731;-71
2022/01/17 09:32:57;;;;;;;9.80;8.43;;;5.20;99.90;;;;;;4933555;29;20248;-75
2022/01/17 09:35:25;;;;;;;9.48;8.60;;;5.20;99.90;;;;;;4934515;29;20246;-75
2022/01/17 09:37:53;;;;;;;12.63;10.13;;;5.20;99.90;;;;;;4934224;29;20239;-75
2022/01/17 09:40:21;;;;;;;12.45;11.13;;;5.30;99.90;;;;;;4934316;29;20621;-72
2022/01/17 09:42:50;;;;;;;11.13;10.02;;;5.30;99.90;;;;;;4933705;29;20315;-75
2022/01/17 09:45:21;;;;;;;9.63;8.63;;;5.30;99.90;;;;;;4933947;29;20200;-75
2022/01/17 09:47:50;;;;;;;8.60;7.78;;;5.30;99.90;;;;;;4936918;29;20215;-75
2022/01/17 09:50:21;;;;;;;9.52;8.40;;;5.40;99.90;;;;;;4927999;29;20260;-75
2022/01/17 09:52:52;;;;;;;9.02;8.07;;;5.40;99.90;;;;;;4927793;29;20315;-74
2022/01/17 09:55:22;;;;;;;12.07;8.90;;;5.50;99.90;;;;;;4941120;29;20741;-74
2022/01/17 09:57:52;;;;;;;17.25;10.82;;;5.50;99.90;;;;;;4952329;29;20255;-75
2022/01/17 10:00:26;;;;;;;7.90;7.10;;;5.50;99.90;;;;;;4950807;29;20200;-74
2022/01/17 10:02:55;;;;;;;8.88;8.07;;;5.60;99.90;;;;;;4917277;29;20287;-73
2022/01/17 10:05:24;;;;;;;8.48;7.70;;;5.50;99.90;;;;;;4933952;29;20670;-75
2022/01/17 10:07:58;;;;;;;9.30;8.27;;;5.60;99.90;;;;;;4933855;29;20624;-74
2022/01/17 10:10:38;;;;;;;9.52;8.20;;;5.60;99.90;;;;;;4933857;29;20226;-75
2022/01/17 10:13:07;;;;;;;11.70;8.10;;;5.60;99.90;;;;;;4935331;29;20326;-74
2022/01/17 10:15:46;;;;;;;9.90;8.88;;;5.60;99.90;;;;;;4937537;29;20208;-74
2022/01/17 10:18:32;;;;;;;11.45;8.40;;;5.60;99.90;;;;;;4933933;29;20243;-74
2022/01/17 10:21:05;;;;;;;11.40;8.75;;;5.60;99.90;;;;;;4937246;29;20232;-73
2022/01/17 10:23:49;;;;;;;10.65;9.07;;;5.50;99.90;;;;;;4937046;29;20208;-74
2022/01/17 10:26:37;;;;;;;7.78;7.07;;;5.50;99.90;;;;;;4937082;29;20219;-75
2022/01/17 10:29:33;;;;;;;10.55;8.73;;;5.60;99.90;;;;;;4936929;29;20286;-71
2022/01/17 10:34:53;;;;;;;10.20;8.52;;;5.60;99.90;;;;;;4949292;29;20213;-63
2022/01/17 10:37:22;;;;;;;9.38;8.05;;;5.50;99.90;;;;;;4955313;29;20306;-63
2022/01/17 10:39:56;;;;;;;9.40;8.43;;;5.60;99.90;;;;;;4955286;29;20231;-63
2022/01/17 10:42:25;;;;;;;8.65;7.85;;;5.60;99.90;;;;;;4954974;29;20668;-64
2022/01/17 10:44:54;;;;;;;9.43;8.38;;;5.50;99.90;;;;;;4955372;29;20290;-63
2022/01/17 10:47:27;;;;;;;8.40;7.50;;;5.50;99.90;;;;;;4946589;29;20291;-63
2022/01/17 10:49:57;;;;;;;8.63;7.75;;;5.50;99.90;;;;;;4949090;29;20301;-64
2022/01/17 10:52:34;;;;;;;11.02;8.68;;;5.50;99.90;;;;;;4954592;29;20315;-63
2022/01/17 10:55:07;;;;;;;8.98;8.07;;;5.50;99.90;;;;;;4942777;29;20580;-63
2022/01/17 10:57:36;;;;;;;10.60;8.85;;;5.50;99.90;;;;;;4955021;29;20207;-63
2022/01/17 11:00:08;;;;;;;8.27;7.40;;;5.50;99.90;;;;;;4954946;29;20266;-64
2022/01/17 11:02:39;;;;;;;12.82;9.45;;;5.60;99.90;;;;;;4954651;29;20274;-63
2022/01/17 11:05:11;;;;;;;9.07;8.15;;;5.60;99.90;;;;;;4954993;29;20199;-63
2022/01/17 11:07:44;;;;;;;12.27;9.77;;;5.70;99.90;;;;;;4954842;29;20211;-63
2022/01/17 11:10:23;;;;;;;9.63;8.65;;;5.70;99.90;;;;;;4954701;29;20238;-63
2022/01/17 11:12:54;;;;;;;9.15;7.90;;;5.70;99.90;;;;;;4954117;29;20237;-63
2022/01/17 11:15:24;;;;;;;8.57;7.68;;;5.70;99.90;;;;;;4954661;29;20293;-63
2022/01/17 11:17:56;;;;;;;9.07;7.05;;;5.80;99.90;;;;;;4928987;29;20634;-62
2022/01/17 11:20:26;;;;;;;9.98;8.23;;;5.90;99.90;;;;;;4954044;29;20756;-64
2022/01/17 11:22:56;;;;;;;8.80;6.68;;;6.00;99.90;;;;;;4954253;29;20232;-63
2022/01/17 11:25:27;;;;;;;7.68;6.88;;;6.10;99.90;;;;;;4953525;28;20282;-63
2022/01/17 11:27:56;;;;;;;11.95;6.97;;;6.10;99.90;;;;;;4943214;29;20203;-63
2022/01/17 11:30:24;;;;;;;8.75;7.05;;;6.10;99.90;;;;;;4954354;29;20238;-65
2022/01/17 11:32:56;;;;;;;8.20;7.40;;;6.30;99.90;;;;;;4953824;29;20330;-64
2022/01/17 11:35:25;;;;;;;9.40;6.68;;;6.40;99.90;;;;;;4954246;29;20230;-64
2022/01/17 11:37:56;;;;;;;8.93;8.02;;;6.40;99.90;;;;;;4954048;29;20290;-64
2022/01/17 11:40:29;;;;;;;9.80;7.47;;;6.40;99.90;;;;;;4954146;29;20203;-64
2022/01/17 11:42:58;;;;;;;9.40;7.60;;;6.40;99.90;;;;;;4953822;29;20673;-63
2022/01/17 11:45:44;;;;;;;9.07;7.20;;;6.50;99.90;;;;;;4953703;29;20713;-64
2022/01/17 11:48:23;;;;;;;8.73;7.60;;;6.50;99.90;;;;;;4942201;29;20291;-64
2022/01/17 11:50:53;;;;;;;8.77;7.13;;;6.40;99.90;;;;;;4942422;29;20310;-64
2022/01/17 11:53:42;;;;;;;8.65;7.72;;;6.40;99.90;;;;;;4953615;29;20314;-64
2022/01/17 11:56:10;;;;;;;11.50;9.75;;;6.40;99.90;;;;;;4953982;29;20297;-64
2022/01/17 11:58:41;;;;;;;10.70;9.27;;;6.50;99.90;;;;;;4953721;29;20238;-64
2022/01/17 12:01:17;;;;;;;8.57;7.65;;;6.40;99.90;;;;;;4953891;29;20759;-64
2022/01/17 12:03:49;;;;;;;12.02;7.13;;;6.50;99.90;;;;;;4953564;29;20719;-63
2022/01/17 12:06:28;;;;;;;6.65;6.05;;;6.50;99.90;;;;;;4953579;29;20231;-62
2022/01/17 12:09:19;;;;;;;8.60;7.38;;;6.60;99.90;;;;;;4953507;29;20235;-64
2022/01/17 12:11:48;;;;;;;7.90;6.07;;;6.60;99.90;;;;;;4953714;29;20322;-64
2022/01/17 12:14:29;;;;;;;9.27;6.80;;;6.70;99.90;;;;;;4953570;29;20289;-64
2022/01/17 12:17:29;;;;;;;7.60;5.93;;;6.80;99.90;;;;;;4939042;29;20246;-63
2022/01/17 12:20:22;;;;;;;7.47;6.78;;;6.80;99.90;;;;;;4948417;29;20243;-64
2022/01/17 12:22:56;;;;;;;8.07;7.25;;;6.80;99.90;;;;;;4953035;29;20223;-63
2022/01/17 12:25:34;;;;;;;8.95;6.65;;;6.70;99.90;;;;;;4953492;29;20291;-64
2022/01/17 12:28:22;;;;;;;6.90;6.07;;;6.70;99.90;;;;;;4953233;29;20246;-64
2022/01/17 12:30:54;;;;;;;7.47;5.75;;;6.70;99.90;;;;;;4953282;29;20208;-64
2022/01/17 12:33:37;;;;;;;31.45;25.70;;;6.70;99.90;;;;;;4952965;29;20247;-64
2022/01/17 12:36:31;;;;;;;7.57;6.82;;;6.80;99.90;;;;;;4953160;28;20211;-64
2022/01/17 12:39:13;;;;;;;6.20;5.55;;;6.80;99.90;;;;;;4953557;29;20263;-64
2022/01/17 12:41:44;;;;;;;8.45;5.82;;;6.80;99.90;;;;;;4953288;29;20302;-63
2022/01/17 12:44:17;;;;;;;8.77;7.30;;;6.80;99.90;;;;;;4953170;29;20290;-64
2022/01/17 12:46:47;;;;;;;11.02;8.40;;;6.80;99.90;;;;;;4948263;29;20207;-62
2022/01/17 12:49:15;;;;;;;11.63;10.15;;;6.70;99.90;;;;;;4932806;29;20686;-64
2022/01/17 12:51:47;;;;;;;7.60;6.82;;;6.70;99.90;;;;;;4952982;29;20227;-64
2022/01/17 12:54:20;;;;;;;8.85;6.80;;;6.70;99.90;;;;;;4952959;29;20291;-64
2022/01/17 12:56:51;;;;;;;7.30;5.97;;;6.80;99.90;;;;;;4952977;29;20246;-64
2022/01/17 12:59:20;;;;;;;9.07;6.97;;;6.80;99.90;;;;;;4953126;29;20233;-64
2022/01/17 13:01:51;;;;;;;8.43;5.72;;;6.80;99.90;;;;;;4953043;29;20285;-64
2022/01/17 13:04:20;;;;;;;7.07;6.45;;;6.80;99.90;;;;;;4953102;29;20211;-64
2022/01/17 13:06:51;;;;;;;7.78;6.10;;;6.80;99.90;;;;;;4952868;29;20207;-64
2022/01/17 13:09:21;;;;;;;8.23;6.05;;;6.80;99.90;;;;;;4953110;29;20625;-63
2022/01/17 13:11:51;;;;;;;8.95;6.00;;;6.80;99.90;;;;;;4952597;29;20274;-64
2022/01/17 13:14:20;;;;;;;7.78;6.43;;;6.90;99.90;;;;;;4952718;29;20207;-64
2022/01/17 13:16:49;;;;;;;7.78;5.93;;;6.90;99.90;;;;;;4944185;29;20289;-64